createdAt,value
2023-03-18T00:00:30.142Z,42.37
2023-03-18T00:03:32.794Z,42.88
2023-03-18T00:06:38.168Z,43.70
2023-03-18T00:09:40.702Z,44.40
2023-03-18T00:12:45.154Z,44.89
2023-03-18T00:15:47.832Z,44.99
2023-03-18T00:18:50.685Z,45.80
2023-03-18T00:21:53.191Z,45.76
2023-03-18T00:24:55.763Z,46.75
2023-03-18T00:27:59.809Z,46.24
2023-03-18T00:31:08.606Z,46.71
2023-03-18T00:34:12.519Z,46.06
2023-03-18T00:37:18.914Z,46.32
2023-03-18T00:40:27.473Z,46.17
2023-03-18T00:43:35.805Z,45.90
2023-03-18T00:46:38.837Z,45.36
2023-03-18T00:49:41.733Z,45.06
2023-03-18T00:52:45.137Z,43.66
2023-03-18T00:55:47.864Z,44.06
2023-03-18T00:58:53.772Z,43.45
2023-03-18T01:01:56.292Z,43.69
2023-03-18T01:04:58.907Z,44.84
2023-03-18T01:08:01.774Z,45.29
2023-03-18T01:11:04.850Z,46.15
2023-03-18T01:14:08.760Z,46.22
2023-03-18T01:17:11.757Z,47.05
2023-03-18T01:20:17.052Z,46.38
2023-03-18T01:23:20.798Z,45.74
2023-03-18T01:26:23.651Z,45.90
2023-03-18T01:29:27.524Z,46.04
2023-03-18T01:32:30.155Z,47.18
2023-03-18T01:35:33.162Z,45.50
2023-03-18T01:38:35.816Z,45.54
2023-03-18T01:41:38.439Z,46.46
2023-03-18T01:44:42.571Z,46.21
2023-03-18T01:47:46.465Z,46.61
2023-03-18T01:50:53.019Z,47.98
2023-03-18T01:53:57.561Z,48.25
2023-03-18T01:57:00.520Z,49.09
2023-03-18T02:00:06.180Z,49.02
2023-03-18T02:03:09.036Z,49.64
2023-03-18T02:06:12.314Z,49.93
2023-03-18T02:09:14.898Z,50.64
2023-03-18T02:12:22.989Z,50.83
2023-03-18T02:15:28.317Z,50.30
2023-03-18T02:18:35.216Z,50.89
2023-03-18T02:21:43.230Z,51.77
2023-03-18T02:24:51.534Z,52.49
2023-03-18T02:27:57.149Z,52.86
2023-03-18T02:31:02.363Z,53.26
2023-03-18T02:34:07.128Z,53.19
2023-03-18T02:37:09.597Z,53.60
2023-03-18T02:40:17.588Z,52.74
2023-03-18T02:43:24.459Z,52.00
2023-03-18T02:46:31.182Z,51.20
2023-03-18T02:49:33.723Z,50.46
2023-03-18T02:52:36.453Z,49.68
2023-03-18T02:55:38.982Z,50.75
2023-03-18T02:58:43.022Z,51.31
2023-03-18T03:01:48.090Z,50.67
2023-03-18T03:04:51.737Z,51.07
2023-03-18T03:07:54.247Z,50.61
2023-03-18T03:10:57.450Z,50.44
2023-03-18T03:14:01.380Z,50.28
2023-03-18T03:17:04.152Z,50.67
2023-03-18T03:20:08.688Z,50.35
2023-03-18T03:23:13.420Z,51.09
2023-03-18T03:26:16.117Z,50.77
2023-03-18T03:29:20.260Z,50.84
2023-03-18T03:32:23.202Z,50.95
2023-03-18T03:35:25.898Z,51.02
2023-03-18T03:38:28.446Z,50.85
2023-03-18T03:41:30.903Z,50.68
2023-03-18T03:44:35.138Z,51.44
2023-03-18T03:47:37.791Z,51.46
2023-03-18T03:50:40.590Z,52.03
2023-03-18T03:53:43.763Z,52.62
2023-03-18T03:56:46.471Z,52.60
2023-03-18T03:59:50.495Z,52.84
2023-03-18T04:02:54.137Z,52.58
2023-03-18T04:05:56.487Z,53.28
2023-03-18T04:08:59.356Z,53.02
2023-03-18T04:12:02.125Z,53.15
2023-03-18T04:15:07.061Z,53.32
2023-03-18T04:18:09.946Z,53.28
2023-03-18T04:21:12.569Z,53.21
2023-03-18T04:24:15.113Z,53.46
2023-03-18T04:27:18.414Z,54.05
2023-03-18T04:30:23.378Z,54.58
2023-03-18T04:33:26.237Z,54.49
2023-03-18T04:36:29.180Z,54.61
2023-03-18T04:39:31.643Z,54.11
2023-03-18T04:42:34.391Z,53.45
2023-03-18T04:45:38.294Z,53.00
2023-03-18T04:48:40.932Z,52.64
2023-03-18T04:51:43.587Z,53.96
2023-03-18T04:54:46.067Z,55.25
2023-03-18T04:57:50.495Z,56.36
2023-03-18T05:00:54.710Z,56.76
2023-03-18T05:03:57.303Z,57.48
2023-03-18T05:06:59.901Z,58.18
2023-03-18T05:10:02.419Z,58.19
2023-03-18T05:13:05.203Z,59.33
2023-03-18T05:16:09.897Z,59.82
2023-03-18T05:19:12.702Z,60.61
2023-03-18T05:22:16.372Z,60.23
2023-03-18T05:25:19.102Z,60.26
2023-03-18T05:28:22.359Z,60.63
2023-03-18T05:31:26.366Z,61.25
2023-03-18T05:34:28.855Z,61.18
2023-03-18T05:37:31.479Z,61.16
2023-03-18T05:40:34.626Z,61.60
2023-03-18T05:43:37.737Z,62.06
2023-03-18T05:46:41.908Z,62.35
2023-03-18T05:49:44.455Z,63.18
2023-03-18T05:52:47.264Z,63.23
2023-03-18T05:55:50.000Z,63.87
2023-03-18T05:58:53.040Z,63.91
2023-03-18T06:01:57.053Z,63.72
2023-03-18T06:05:00.156Z,63.33
2023-03-18T06:08:03.109Z,62.80
2023-03-18T06:11:06.576Z,62.24
2023-03-18T06:14:09.559Z,61.74
2023-03-18T06:17:14.031Z,62.02
2023-03-18T06:20:18.614Z,62.09
2023-03-18T06:23:21.668Z,62.34
2023-03-18T06:26:24.476Z,61.68
2023-03-18T06:29:27.677Z,61.01
2023-03-18T06:32:32.987Z,60.58
2023-03-18T06:35:36.307Z,60.81
2023-03-18T06:38:39.038Z,61.00
2023-03-18T06:41:41.580Z,61.20
2023-03-18T06:44:50.383Z,60.24
2023-03-18T06:47:54.323Z,60.08
2023-03-18T06:50:56.898Z,59.93
2023-03-18T06:53:59.945Z,59.98
2023-03-18T06:57:02.729Z,59.81
2023-03-18T07:00:06.252Z,59.62
2023-03-18T07:03:10.442Z,59.36
2023-03-18T07:06:13.087Z,59.66
2023-03-18T07:09:15.607Z,59.35
2023-03-18T07:12:19.165Z,59.05
2023-03-18T07:15:22.945Z,58.61
2023-03-18T07:18:28.073Z,58.08
2023-03-18T07:21:30.854Z,57.52
2023-03-18T07:24:33.475Z,57.13
2023-03-18T07:27:35.985Z,56.63
2023-03-18T07:30:40.204Z,56.13
2023-03-18T07:33:44.155Z,55.39
2023-03-18T07:36:46.907Z,54.53
2023-03-18T07:39:49.601Z,54.10
2023-03-18T07:42:53.503Z,53.61
2023-03-18T07:45:56.176Z,52.12
2023-03-18T07:49:00.070Z,52.49
2023-03-18T07:52:03.829Z,52.44
2023-03-18T07:55:09.072Z,51.56
2023-03-18T07:58:11.610Z,50.83
2023-03-18T08:01:16.616Z,50.03
2023-03-18T08:04:20.805Z,48.80
2023-03-18T08:07:24.430Z,47.99
2023-03-18T08:10:26.825Z,47.43
2023-03-18T08:13:29.481Z,46.92
2023-03-18T08:16:32.107Z,47.04
2023-03-18T08:19:36.261Z,44.64
2023-03-18T08:22:38.855Z,45.17
2023-03-18T08:25:41.819Z,45.59
2023-03-18T08:28:44.384Z,44.97
2023-03-18T08:31:47.056Z,44.30
2023-03-18T08:34:51.281Z,44.27
2023-03-18T08:37:54.322Z,43.73
2023-03-18T08:40:57.844Z,42.48
2023-03-18T08:44:00.485Z,42.73
2023-03-18T08:47:02.974Z,42.17
2023-03-18T08:50:08.944Z,42.34
2023-03-18T08:53:13.098Z,42.23
2023-03-18T08:56:15.993Z,41.46
2023-03-18T08:59:18.656Z,41.79
2023-03-18T09:02:21.624Z,41.38
2023-03-18T09:05:25.964Z,41.58
2023-03-18T09:08:29.250Z,41.08
2023-03-18T09:11:31.749Z,40.92
2023-03-18T09:14:34.448Z,40.57
2023-03-18T09:17:53.420Z,40.74
2023-03-18T09:21:00.760Z,40.61
2023-03-18T09:24:07.035Z,40.76
2023-03-18T09:27:10.338Z,40.35
2023-03-18T09:30:14.097Z,39.81
2023-03-18T09:33:17.023Z,39.21
2023-03-18T09:36:20.911Z,39.33
2023-03-18T09:39:23.725Z,39.13
2023-03-18T09:42:37.557Z,39.00
2023-03-18T09:45:47.000Z,38.46
2023-03-18T09:48:58.101Z,38.16
2023-03-18T09:52:10.887Z,37.96
2023-03-18T09:55:21.762Z,37.33
2023-03-18T09:58:26.792Z,36.89
2023-03-18T10:01:29.793Z,36.77
2023-03-18T10:04:38.333Z,36.25
2023-03-18T10:07:44.638Z,35.50
2023-03-18T10:10:48.730Z,35.50
2023-03-18T10:14:19.995Z,35.14
2023-03-18T10:17:25.934Z,34.81
2023-03-18T10:20:34.333Z,34.65
2023-03-18T10:23:46.240Z,34.48
2023-03-18T10:26:50.719Z,34.92
2023-03-18T10:29:59.266Z,34.04
2023-03-18T10:33:06.611Z,33.20
2023-03-18T10:36:13.922Z,33.38
2023-03-18T10:39:20.483Z,33.16
2023-03-18T10:42:26.405Z,32.39
2023-03-18T10:45:31.743Z,32.24
2023-03-18T10:48:36.459Z,31.42
2023-03-18T10:51:45.260Z,31.53
2023-03-18T10:54:52.482Z,31.21
2023-03-18T10:57:55.062Z,30.48
2023-03-18T11:00:57.937Z,30.86
2023-03-18T11:04:03.332Z,30.54
2023-03-18T11:07:09.153Z,30.72
2023-03-18T11:10:15.700Z,30.23
2023-03-18T11:13:19.137Z,30.04
2023-03-18T11:16:26.045Z,30.41
2023-03-18T11:19:32.159Z,30.83
2023-03-18T11:22:36.660Z,30.01
2023-03-18T11:25:40.792Z,29.74
2023-03-18T11:28:43.321Z,29.01
2023-03-18T11:32:03.676Z,28.82
2023-03-18T11:35:08.572Z,29.28
2023-03-18T11:38:16.665Z,28.45
2023-03-18T11:41:25.255Z,27.91
2023-03-18T11:44:32.674Z,27.18
2023-03-18T11:47:36.471Z,27.51
2023-03-18T11:50:44.894Z,27.23
2023-03-18T11:53:54.324Z,27.59
2023-03-18T11:57:01.694Z,27.12
2023-03-18T12:00:17.554Z,26.97
2023-03-18T12:03:53.853Z,26.75
2023-03-18T12:07:06.499Z,26.12
2023-03-18T12:10:18.050Z,25.45
2023-03-18T12:13:31.744Z,25.73
2023-03-18T12:16:46.539Z,25.56
2023-03-18T12:20:12.915Z,24.98
2023-03-18T12:23:29.683Z,25.36
2023-03-18T12:26:36.252Z,25.33
2023-03-18T12:30:11.685Z,25.54
2023-03-18T12:33:26.292Z,25.53
2023-03-18T12:36:44.983Z,25.25
2023-03-18T12:39:53.777Z,25.71
2023-03-18T12:43:05.492Z,25.19
2023-03-18T12:46:20.065Z,24.89
2023-03-18T12:49:26.583Z,25.25
2023-03-18T12:52:33.690Z,24.59
2023-03-18T12:55:38.642Z,24.58
2023-03-18T12:58:46.117Z,24.08
2023-03-18T13:01:58.367Z,23.63
2023-03-18T13:05:05.600Z,17.56
2023-03-18T13:08:35.562Z,12.33
2023-03-18T13:11:55.520Z,10.39
2023-03-18T13:14:59.938Z,9.40
2023-03-18T13:18:12.069Z,8.50
2023-03-18T13:21:16.444Z,10.55
2023-03-18T13:24:44.738Z,11.31
2023-03-18T13:27:54.917Z,13.55
2023-03-18T13:31:06.563Z,13.19
2023-03-18T13:34:31.580Z,11.30
2023-03-18T13:37:52.797Z,11.19
2023-03-18T13:41:05.688Z,12.82
2023-03-18T13:44:13.207Z,14.71
2023-03-18T13:47:18.435Z,15.12
2023-03-18T13:50:32.390Z,16.23
2023-03-18T13:53:39.693Z,15.93
2023-03-18T13:56:50.029Z,15.75
2023-03-18T13:59:52.593Z,16.17
2023-03-18T14:03:17.563Z,14.31
2023-03-18T14:06:24.676Z,13.07
2023-03-18T14:09:36.021Z,13.97
2023-03-18T14:12:40.355Z,15.48
2023-03-18T14:15:45.850Z,15.23
2023-03-18T14:18:57.173Z,14.86
2023-03-18T14:22:08.599Z,14.19
2023-03-18T14:25:21.430Z,15.25
2023-03-18T14:28:26.393Z,16.16
2023-03-18T14:31:35.091Z,16.92
2023-03-18T14:34:54.579Z,16.58
2023-03-18T14:38:01.999Z,16.78
2023-03-18T14:41:07.823Z,16.23
2023-03-18T14:44:21.469Z,15.85
2023-03-18T14:47:38.074Z,14.40
2023-03-18T14:50:43.302Z,13.40
2023-03-18T14:53:50.542Z,14.46
2023-03-18T14:56:54.673Z,15.77
2023-03-18T14:59:59.446Z,17.03
2023-03-18T15:03:04.620Z,16.34
2023-03-18T15:06:08.042Z,17.49
2023-03-18T15:09:23.484Z,17.18
2023-03-18T15:12:28.227Z,18.03
2023-03-18T15:15:31.378Z,18.63
2023-03-18T15:18:36.106Z,19.45
2023-03-18T15:21:39.190Z,19.67
2023-03-18T15:24:43.024Z,19.88
2023-03-18T15:27:45.729Z,19.71
2023-03-18T15:30:54.217Z,20.02
2023-03-18T15:34:05.012Z,24.67
2023-03-18T15:37:25.893Z,26.40
2023-03-18T15:40:32.864Z,27.25
2023-03-18T15:43:40.383Z,24.14
2023-03-18T15:46:47.236Z,18.73
2023-03-18T15:49:52.740Z,18.13
2023-03-18T15:53:09.444Z,22.14
2023-03-18T15:56:18.265Z,24.16
2023-03-18T15:59:28.707Z,21.38
2023-03-18T16:02:32.075Z,18.84
2023-03-18T16:05:35.023Z,21.28
2023-03-18T16:08:37.652Z,20.14
2023-03-18T16:11:41.526Z,23.06
2023-03-18T16:14:45.533Z,26.17
2023-03-18T16:17:48.663Z,28.05
2023-03-18T16:20:52.841Z,27.19
2023-03-18T16:23:55.888Z,26.58
2023-03-18T16:27:00.281Z,25.50
2023-03-18T16:30:02.940Z,27.21
2023-03-18T16:33:07.451Z,28.76
2023-03-18T16:36:22.969Z,30.29
2023-03-18T16:39:28.869Z,31.61
2023-03-18T16:42:32.702Z,32.71
2023-03-18T16:45:35.793Z,33.49
2023-03-18T16:48:38.798Z,33.77
2023-03-18T16:51:42.533Z,34.27
2023-03-18T16:54:45.302Z,34.30
2023-03-18T16:57:52.301Z,34.57
2023-03-18T17:00:55.143Z,34.69
2023-03-18T17:03:57.925Z,34.84
2023-03-18T17:07:03.479Z,35.53
2023-03-18T17:10:08.961Z,36.29
2023-03-18T17:13:20.485Z,36.79
2023-03-18T17:16:23.319Z,36.83
2023-03-18T17:19:26.514Z,36.88
2023-03-18T17:22:30.636Z,37.28
2023-03-18T17:25:33.749Z,37.92
2023-03-18T17:28:39.105Z,38.38
2023-03-18T17:31:41.754Z,38.97
2023-03-18T17:34:44.719Z,38.84
2023-03-18T17:37:47.485Z,39.76
2023-03-18T17:40:50.464Z,40.13
2023-03-18T17:43:54.307Z,41.12
2023-03-18T17:46:57.519Z,40.49
2023-03-18T17:50:00.606Z,40.59
2023-03-18T17:53:03.946Z,40.79
2023-03-18T17:56:08.327Z,41.09
2023-03-18T17:59:14.618Z,41.99
2023-03-18T18:02:18.698Z,41.97
2023-03-18T18:05:22.382Z,42.21
2023-03-18T18:08:26.072Z,42.60
2023-03-18T18:11:29.708Z,42.72
2023-03-18T18:14:34.223Z,43.31
2023-03-18T18:17:37.230Z,44.29
2023-03-18T18:20:39.788Z,44.24
2023-03-18T18:23:42.887Z,44.26
2023-03-18T18:26:45.621Z,44.12
2023-03-18T18:29:50.171Z,44.65
2023-03-18T18:32:53.826Z,45.59
2023-03-18T18:35:57.007Z,45.66
2023-03-18T18:39:00.635Z,46.23
2023-03-18T18:42:04.245Z,46.69
2023-03-18T18:45:10.508Z,46.99
2023-03-18T18:48:14.265Z,47.37
2023-03-18T18:51:18.751Z,47.67
2023-03-18T18:54:21.652Z,47.81
2023-03-18T18:57:26.729Z,48.28
2023-03-18T19:00:30.754Z,48.80
2023-03-18T19:03:33.626Z,48.17
2023-03-18T19:06:36.498Z,48.79
2023-03-18T19:09:39.217Z,48.99
2023-03-18T19:12:44.136Z,49.21
2023-03-18T19:15:49.513Z,49.56
2023-03-18T19:18:52.099Z,49.48
2023-03-18T19:21:54.809Z,49.75
2023-03-18T19:24:57.373Z,49.43
2023-03-18T19:28:00.298Z,49.67
2023-03-18T19:31:04.384Z,49.70
2023-03-18T19:34:10.758Z,49.96
2023-03-18T19:37:17.621Z,49.34
2023-03-18T19:40:23.733Z,49.90
2023-03-18T19:43:26.249Z,49.85
2023-03-18T19:46:35.987Z,49.11
2023-03-18T19:49:39.401Z,49.51
2023-03-18T19:52:42.228Z,49.58
2023-03-18T19:55:46.082Z,49.64
2023-03-18T19:58:49.467Z,50.09
2023-03-18T20:01:54.460Z,49.88
2023-03-18T20:04:58.800Z,50.37
2023-03-18T20:08:01.407Z,49.56
2023-03-18T20:11:04.218Z,49.49
2023-03-18T20:14:22.719Z,50.31
2023-03-18T20:17:32.314Z,50.29
2023-03-18T20:20:35.417Z,50.46
2023-03-18T20:23:38.135Z,50.97
2023-03-18T20:26:40.798Z,51.46
2023-03-18T20:29:43.713Z,51.19
2023-03-18T20:32:47.583Z,51.17
2023-03-18T20:35:52.002Z,51.42
2023-03-18T20:38:54.731Z,51.28
2023-03-18T20:41:57.519Z,51.48
2023-03-18T20:45:00.407Z,51.22
2023-03-18T20:48:04.828Z,51.15
2023-03-18T20:51:15.120Z,51.43
2023-03-18T20:54:19.591Z,51.39
2023-03-18T20:57:22.460Z,51.50
2023-03-18T21:00:26.939Z,51.24
2023-03-18T21:03:31.922Z,50.94
2023-03-18T21:06:34.564Z,51.19
2023-03-18T21:09:37.120Z,51.71
2023-03-18T21:12:39.618Z,50.99
2023-03-18T21:15:42.352Z,51.60
2023-03-18T21:18:46.451Z,51.98
2023-03-18T21:21:49.043Z,52.33
2023-03-18T21:24:52.294Z,51.77
2023-03-18T21:27:55.404Z,52.40
2023-03-18T21:30:58.772Z,52.70
2023-03-18T21:34:03.958Z,52.30
2023-03-18T21:37:11.326Z,52.85
2023-03-18T21:40:19.225Z,53.42
2023-03-18T21:43:28.178Z,53.89
2023-03-18T21:46:30.840Z,53.01
2023-03-18T21:49:34.723Z,52.84
2023-03-18T21:52:38.399Z,52.39
2023-03-18T21:55:41.026Z,53.24
2023-03-18T21:58:43.567Z,53.14
2023-03-18T22:01:46.240Z,53.00
2023-03-18T22:04:50.230Z,53.03
2023-03-18T22:07:53.889Z,52.34
2023-03-18T22:10:56.757Z,53.32
2023-03-18T22:13:59.291Z,54.02
2023-03-18T22:17:01.777Z,54.44
2023-03-18T22:20:07.256Z,54.78
2023-03-18T22:23:18.970Z,54.63
2023-03-18T22:26:22.388Z,54.63
2023-03-18T22:29:24.885Z,54.95
2023-03-18T22:32:45.689Z,54.23
2023-03-18T22:35:49.688Z,54.50
2023-03-18T22:38:52.361Z,55.08
2023-03-18T22:41:54.866Z,54.67
2023-03-18T22:44:57.722Z,54.94
2023-03-18T22:48:02.891Z,54.66
2023-03-18T22:51:07.478Z,53.99
2023-03-18T22:54:18.671Z,54.38
2023-03-18T22:57:22.902Z,54.06
2023-03-18T23:00:31.976Z,54.45
2023-03-18T23:03:36.368Z,54.26
2023-03-18T23:06:41.515Z,54.57
2023-03-18T23:09:56.186Z,55.41
2023-03-18T23:12:59.338Z,55.30
2023-03-18T23:16:02.297Z,55.14
2023-03-18T23:19:04.981Z,55.71
2023-03-18T23:22:10.843Z,55.97
2023-03-18T23:25:15.985Z,55.87
2023-03-18T23:28:19.237Z,55.19
2023-03-18T23:31:21.790Z,55.74
2023-03-18T23:34:24.364Z,55.23
2023-03-18T23:37:28.298Z,55.35
2023-03-18T23:40:30.951Z,55.66
2023-03-18T23:43:33.495Z,55.31
2023-03-18T23:46:36.416Z,55.32
2023-03-18T23:49:39.721Z,54.82
2023-03-18T23:52:43.680Z,54.60
2023-03-18T23:55:48.588Z,55.49
2023-03-18T23:58:51.586Z,55.54
